sensor_id;sensor_type;location;lat;lon;timestamp;P1;durP1;ratioP1;P2;durP2;ratioP2
53145;SDS011;39042;53.150;5.898;2023-05-07T00:00:33;26.92;;;18.60;;
53145;SDS011;39042;53.150;5.898;2023-05-07T00:02:59;29.70;;;18.40;;
53145;SDS011;39042;53.150;5.898;2023-05-07T00:05:25;28.20;;;18.38;;
53145;SDS011;39042;53.150;5.898;2023-05-07T00:07:51;28.45;;;18.90;;
53145;SDS011;39042;53.150;5.898;2023-05-07T00:12:43;28.88;;;19.08;;
53145;SDS011;39042;53.150;5.898;2023-05-07T00:15:09;28.77;;;19.43;;
53145;SDS011;39042;53.150;5.898;2023-05-07T00:17:36;32.75;;;20.02;;
53145;SDS011;39042;53.150;5.898;2023-05-07T00:20:02;28.65;;;19.52;;
53145;SDS011;39042;53.150;5.898;2023-05-07T00:22:30;31.42;;;20.52;;
53145;SDS011;39042;53.150;5.898;2023-05-07T00:24:57;29.65;;;20.38;;
53145;SDS011;39042;53.150;5.898;2023-05-07T00:27:24;33.88;;;20.23;;
53145;SDS011;39042;53.150;5.898;2023-05-07T00:32:16;30.38;;;18.58;;
53145;SDS011;39042;53.150;5.898;2023-05-07T00:34:42;31.07;;;20.17;;
53145;SDS011;39042;53.150;5.898;2023-05-07T00:37:08;28.92;;;20.33;;
53145;SDS011;39042;53.150;5.898;2023-05-07T00:39:34;29.23;;;20.57;;
53145;SDS011;39042;53.150;5.898;2023-05-07T00:42:00;33.50;;;20.33;;
53145;SDS011;39042;53.150;5.898;2023-05-07T00:44:27;30.25;;;18.77;;
53145;SDS011;39042;53.150;5.898;2023-05-07T00:46:53;30.08;;;19.58;;
53145;SDS011;39042;53.150;5.898;2023-05-07T00:49:19;27.30;;;18.20;;
53145;SDS011;39042;53.150;5.898;2023-05-07T00:51:46;29.15;;;18.85;;
53145;SDS011;39042;53.150;5.898;2023-05-07T00:54:12;31.90;;;19.25;;
53145;SDS011;39042;53.150;5.898;2023-05-07T00:56:40;27.83;;;17.65;;
53145;SDS011;39042;53.150;5.898;2023-05-07T00:59:06;28.67;;;18.92;;
53145;SDS011;39042;53.150;5.898;2023-05-07T01:01:32;27.98;;;17.88;;
53145;SDS011;39042;53.150;5.898;2023-05-07T01:03:57;31.00;;;18.33;;
53145;SDS011;39042;53.150;5.898;2023-05-07T01:06:23;29.83;;;18.27;;
53145;SDS011;39042;53.150;5.898;2023-05-07T01:08:51;28.33;;;18.17;;
53145;SDS011;39042;53.150;5.898;2023-05-07T01:11:21;31.55;;;18.73;;
53145;SDS011;39042;53.150;5.898;2023-05-07T01:13:47;31.40;;;18.77;;
53145;SDS011;39042;53.150;5.898;2023-05-07T01:18:40;33.83;;;18.60;;
53145;SDS011;39042;53.150;5.898;2023-05-07T01:21:06;31.83;;;19.25;;
53145;SDS011;39042;53.150;5.898;2023-05-07T01:23:35;29.85;;;18.35;;
53145;SDS011;39042;53.150;5.898;2023-05-07T01:26:01;31.25;;;19.70;;
53145;SDS011;39042;53.150;5.898;2023-05-07T01:28:29;33.33;;;20.50;;
53145;SDS011;39042;53.150;5.898;2023-05-07T01:31:01;31.95;;;20.33;;
53145;SDS011;39042;53.150;5.898;2023-05-07T01:33:29;33.25;;;20.90;;
53145;SDS011;39042;53.150;5.898;2023-05-07T01:35:59;28.95;;;19.13;;
53145;SDS011;39042;53.150;5.898;2023-05-07T01:38:27;30.73;;;19.35;;
53145;SDS011;39042;53.150;5.898;2023-05-07T01:40:55;29.95;;;19.70;;
53145;SDS011;39042;53.150;5.898;2023-05-07T01:43:21;30.60;;;20.17;;
53145;SDS011;39042;53.150;5.898;2023-05-07T01:45:47;31.20;;;19.43;;
53145;SDS011;39042;53.150;5.898;2023-05-07T01:48:14;35.17;;;21.92;;
53145;SDS011;39042;53.150;5.898;2023-05-07T01:50:41;35.63;;;21.73;;
53145;SDS011;39042;53.150;5.898;2023-05-07T01:53:08;33.75;;;20.85;;
53145;SDS011;39042;53.150;5.898;2023-05-07T01:55:34;35.10;;;22.35;;
53145;SDS011;39042;53.150;5.898;2023-05-07T01:58:02;41.45;;;23.23;;
53145;SDS011;39042;53.150;5.898;2023-05-07T02:00:29;37.25;;;23.15;;
53145;SDS011;39042;53.150;5.898;2023-05-07T02:02:55;36.37;;;22.63;;
53145;SDS011;39042;53.150;5.898;2023-05-07T02:05:36;38.08;;;23.85;;
53145;SDS011;39042;53.150;5.898;2023-05-07T02:08:22;42.20;;;23.98;;
53145;SDS011;39042;53.150;5.898;2023-05-07T02:10:47;39.67;;;24.57;;
53145;SDS011;39042;53.150;5.898;2023-05-07T02:13:13;40.57;;;25.67;;
53145;SDS011;39042;53.150;5.898;2023-05-07T02:15:39;39.93;;;25.07;;
53145;SDS011;39042;53.150;5.898;2023-05-07T02:18:07;36.87;;;23.27;;
53145;SDS011;39042;53.150;5.898;2023-05-07T02:20:34;37.13;;;24.40;;
53145;SDS011;39042;53.150;5.898;2023-05-07T02:25:28;40.42;;;24.48;;
53145;SDS011;39042;53.150;5.898;2023-05-07T09:50:57;22.42;;;18.15;;
53145;SDS011;39042;53.150;5.898;2023-05-07T09:53:30;23.85;;;18.77;;
53145;SDS011;39042;53.150;5.898;2023-05-07T09:56:01;27.55;;;17.55;;
53145;SDS011;39042;53.150;5.898;2023-05-07T09:58:28;24.85;;;18.92;;
53145;SDS011;39042;53.150;5.898;2023-05-07T10:00:55;24.48;;;19.55;;
53145;SDS011;39042;53.150;5.898;2023-05-07T10:03:22;25.02;;;19.05;;
53145;SDS011;39042;53.150;5.898;2023-05-07T10:05:58;25.00;;;18.70;;
53145;SDS011;39042;53.150;5.898;2023-05-07T10:10:53;25.33;;;18.40;;
53145;SDS011;39042;53.150;5.898;2023-05-07T10:13:22;26.08;;;18.70;;
53145;SDS011;39042;53.150;5.898;2023-05-07T10:15:52;24.67;;;18.70;;
53145;SDS011;39042;53.150;5.898;2023-05-07T10:18:21;25.17;;;19.27;;
53145;SDS011;39042;53.150;5.898;2023-05-07T10:21:02;24.35;;;18.95;;
53145;SDS011;39042;53.150;5.898;2023-05-07T10:23:39;24.83;;;19.40;;
53145;SDS011;39042;53.150;5.898;2023-05-07T10:26:06;24.02;;;18.80;;
53145;SDS011;39042;53.150;5.898;2023-05-07T10:28:36;23.75;;;17.50;;
53145;SDS011;39042;53.150;5.898;2023-05-07T10:36:22;24.08;;;18.85;;
53145;SDS011;39042;53.150;5.898;2023-05-07T10:38:51;26.75;;;19.13;;
53145;SDS011;39042;53.150;5.898;2023-05-07T10:41:17;24.67;;;19.50;;
53145;SDS011;39042;53.150;5.898;2023-05-07T10:43:45;26.45;;;19.63;;
53145;SDS011;39042;53.150;5.898;2023-05-07T10:46:19;26.48;;;19.40;;
53145;SDS011;39042;53.150;5.898;2023-05-07T10:51:36;24.05;;;18.35;;
53145;SDS011;39042;53.150;5.898;2023-05-07T10:56:40;24.25;;;18.88;;
53145;SDS011;39042;53.150;5.898;2023-05-07T11:01:50;26.20;;;20.17;;
53145;SDS011;39042;53.150;5.898;2023-05-07T11:04:26;26.35;;;20.90;;
53145;SDS011;39042;53.150;5.898;2023-05-07T11:15:06;25.48;;;19.63;;
53145;SDS011;39042;53.150;5.898;2023-05-07T11:17:59;29.17;;;20.30;;
53145;SDS011;39042;53.150;5.898;2023-05-07T11:20:49;28.10;;;21.33;;
53145;SDS011;39042;53.150;5.898;2023-05-07T11:26:16;26.75;;;20.05;;
53145;SDS011;39042;53.150;5.898;2023-05-07T11:28:43;26.38;;;20.05;;
53145;SDS011;39042;53.150;5.898;2023-05-07T11:33:37;26.27;;;20.60;;
53145;SDS011;39042;53.150;5.898;2023-05-07T11:36:07;25.30;;;17.85;;
53145;SDS011;39042;53.150;5.898;2023-05-07T11:38:38;26.30;;;19.50;;
53145;SDS011;39042;53.150;5.898;2023-05-07T11:41:04;25.98;;;20.38;;
53145;SDS011;39042;53.150;5.898;2023-05-07T11:43:33;23.48;;;19.70;;
53145;SDS011;39042;53.150;5.898;2023-05-07T11:46:10;31.23;;;24.25;;
53145;SDS011;39042;53.150;5.898;2023-05-07T11:48:38;24.83;;;20.33;;
53145;SDS011;39042;53.150;5.898;2023-05-07T11:51:04;26.33;;;20.25;;
53145;SDS011;39042;53.150;5.898;2023-05-07T11:53:38;29.23;;;23.45;;
53145;SDS011;39042;53.150;5.898;2023-05-07T11:56:06;29.27;;;24.58;;
53145;SDS011;39042;53.150;5.898;2023-05-07T11:58:36;35.53;;;26.23;;
53145;SDS011;39042;53.150;5.898;2023-05-07T12:01:02;27.80;;;20.02;;
53145;SDS011;39042;53.150;5.898;2023-05-07T12:05:54;25.00;;;18.33;;
53145;SDS011;39042;53.150;5.898;2023-05-07T12:08:21;23.60;;;18.55;;
53145;SDS011;39042;53.150;5.898;2023-05-07T12:10:48;25.08;;;17.80;;
53145;SDS011;39042;53.150;5.898;2023-05-07T12:13:18;24.08;;;17.80;;
53145;SDS011;39042;53.150;5.898;2023-05-07T12:15:45;27.70;;;21.58;;
53145;SDS011;39042;53.150;5.898;2023-05-07T12:18:11;23.50;;;18.92;;
53145;SDS011;39042;53.150;5.898;2023-05-07T12:23:04;22.52;;;17.63;;
53145;SDS011;39042;53.150;5.898;2023-05-07T12:28:00;24.63;;;18.65;;
53145;SDS011;39042;53.150;5.898;2023-05-07T12:30:39;20.98;;;16.88;;
53145;SDS011;39042;53.150;5.898;2023-05-07T12:33:05;21.65;;;17.42;;
53145;SDS011;39042;53.150;5.898;2023-05-07T12:35:32;22.65;;;17.63;;
53145;SDS011;39042;53.150;5.898;2023-05-07T12:38:07;23.90;;;19.30;;
53145;SDS011;39042;53.150;5.898;2023-05-07T12:40:55;22.42;;;17.95;;
53145;SDS011;39042;53.150;5.898;2023-05-07T12:43:24;22.88;;;17.65;;
53145;SDS011;39042;53.150;5.898;2023-05-07T12:45:54;24.48;;;18.85;;
53145;SDS011;39042;53.150;5.898;2023-05-07T12:48:21;21.88;;;17.92;;
53145;SDS011;39042;53.150;5.898;2023-05-07T12:50:51;22.75;;;18.20;;
53145;SDS011;39042;53.150;5.898;2023-05-07T12:53:20;22.10;;;18.45;;
53145;SDS011;39042;53.150;5.898;2023-05-07T12:55:47;22.33;;;17.58;;
53145;SDS011;39042;53.150;5.898;2023-05-07T12:58:19;22.98;;;17.83;;
53145;SDS011;39042;53.150;5.898;2023-05-07T13:00:49;20.45;;;17.73;;
53145;SDS011;39042;53.150;5.898;2023-05-07T13:05:49;29.77;;;26.75;;
53145;SDS011;39042;53.150;5.898;2023-05-07T13:11:02;24.05;;;19.90;;
53145;SDS011;39042;53.150;5.898;2023-05-07T13:13:32;21.63;;;17.75;;
53145;SDS011;39042;53.150;5.898;2023-05-07T13:16:03;20.80;;;16.48;;
53145;SDS011;39042;53.150;5.898;2023-05-07T13:18:30;18.88;;;15.88;;
53145;SDS011;39042;53.150;5.898;2023-05-07T13:20:56;21.67;;;17.98;;
53145;SDS011;39042;53.150;5.898;2023-05-07T13:23:22;19.50;;;16.85;;
53145;SDS011;39042;53.150;5.898;2023-05-07T13:25:48;22.70;;;18.30;;
53145;SDS011;39042;53.150;5.898;2023-05-07T13:28:16;21.73;;;17.33;;
53145;SDS011;39042;53.150;5.898;2023-05-07T13:30:42;20.23;;;16.58;;
53145;SDS011;39042;53.150;5.898;2023-05-07T13:33:08;19.63;;;15.63;;
53145;SDS011;39042;53.150;5.898;2023-05-07T13:35:34;20.50;;;16.40;;
53145;SDS011;39042;53.150;5.898;2023-05-07T13:38:00;22.42;;;16.38;;
53145;SDS011;39042;53.150;5.898;2023-05-07T13:40:26;20.33;;;17.40;;
53145;SDS011;39042;53.150;5.898;2023-05-07T13:42:52;18.05;;;15.32;;
53145;SDS011;39042;53.150;5.898;2023-05-07T13:45:18;17.38;;;14.82;;
53145;SDS011;39042;53.150;5.898;2023-05-07T13:47:44;21.42;;;16.02;;
53145;SDS011;39042;53.150;5.898;2023-05-07T13:50:11;18.67;;;15.13;;
53145;SDS011;39042;53.150;5.898;2023-05-07T13:52:44;17.50;;;15.48;;
53145;SDS011;39042;53.150;5.898;2023-05-07T13:55:16;17.38;;;12.82;;
53145;SDS011;39042;53.150;5.898;2023-05-07T13:57:43;16.40;;;13.35;;
53145;SDS011;39042;53.150;5.898;2023-05-07T14:00:09;14.10;;;11.60;;
53145;SDS011;39042;53.150;5.898;2023-05-07T14:02:44;16.02;;;12.90;;
53145;SDS011;39042;53.150;5.898;2023-05-07T14:05:10;14.40;;;12.80;;
53145;SDS011;39042;53.150;5.898;2023-05-07T14:07:36;17.30;;;14.18;;
53145;SDS011;39042;53.150;5.898;2023-05-07T14:10:02;17.15;;;14.48;;
53145;SDS011;39042;53.150;5.898;2023-05-07T14:12:28;17.17;;;14.27;;
53145;SDS011;39042;53.150;5.898;2023-05-07T14:14:54;15.90;;;14.10;;
53145;SDS011;39042;53.150;5.898;2023-05-07T14:19:48;15.13;;;12.48;;
53145;SDS011;39042;53.150;5.898;2023-05-07T14:22:14;21.63;;;17.55;;
53145;SDS011;39042;53.150;5.898;2023-05-07T14:24:40;17.65;;;15.32;;
53145;SDS011;39042;53.150;5.898;2023-05-07T14:27:06;16.98;;;15.05;;
53145;SDS011;39042;53.150;5.898;2023-05-07T14:29:32;17.67;;;14.27;;
53145;SDS011;39042;53.150;5.898;2023-05-07T14:32:00;14.27;;;11.55;;
53145;SDS011;39042;53.150;5.898;2023-05-07T14:34:27;13.55;;;11.30;;
53145;SDS011;39042;53.150;5.898;2023-05-07T14:36:52;13.13;;;11.70;;
53145;SDS011;39042;53.150;5.898;2023-05-07T14:39:18;12.73;;;11.40;;
53145;SDS011;39042;53.150;5.898;2023-05-07T14:41:44;16.08;;;11.60;;
53145;SDS011;39042;53.150;5.898;2023-05-07T14:44:09;16.83;;;12.27;;
53145;SDS011;39042;53.150;5.898;2023-05-07T14:46:35;14.55;;;13.05;;
53145;SDS011;39042;53.150;5.898;2023-05-07T14:49:01;18.40;;;16.33;;
53145;SDS011;39042;53.150;5.898;2023-05-07T14:53:53;16.55;;;14.30;;
53145;SDS011;39042;53.150;5.898;2023-05-07T14:56:19;16.63;;;14.90;;
53145;SDS011;39042;53.150;5.898;2023-05-07T14:58:46;16.60;;;14.20;;
53145;SDS011;39042;53.150;5.898;2023-05-07T15:01:13;36.50;;;32.90;;
53145;SDS011;39042;53.150;5.898;2023-05-07T15:03:39;18.90;;;15.52;;
53145;SDS011;39042;53.150;5.898;2023-05-07T15:06:05;19.70;;;17.60;;
53145;SDS011;39042;53.150;5.898;2023-05-07T15:08:31;18.02;;;14.40;;
53145;SDS011;39042;53.150;5.898;2023-05-07T15:10:57;16.30;;;14.52;;
53145;SDS011;39042;53.150;5.898;2023-05-07T15:13:22;20.15;;;16.92;;
53145;SDS011;39042;53.150;5.898;2023-05-07T15:15:48;19.95;;;15.98;;
53145;SDS011;39042;53.150;5.898;2023-05-07T15:18:15;19.92;;;15.95;;
53145;SDS011;39042;53.150;5.898;2023-05-07T15:20:41;19.35;;;16.38;;
53145;SDS011;39042;53.150;5.898;2023-05-07T15:23:07;20.70;;;16.70;;
53145;SDS011;39042;53.150;5.898;2023-05-07T15:25:38;18.73;;;16.73;;
53145;SDS011;39042;53.150;5.898;2023-05-07T15:28:04;20.17;;;18.08;;
53145;SDS011;39042;53.150;5.898;2023-05-07T15:30:30;20.80;;;18.52;;
53145;SDS011;39042;53.150;5.898;2023-05-07T15:35:22;19.55;;;17.02;;
53145;SDS011;39042;53.150;5.898;2023-05-07T15:37:48;19.23;;;16.38;;
53145;SDS011;39042;53.150;5.898;2023-05-07T15:42:40;20.20;;;18.02;;
53145;SDS011;39042;53.150;5.898;2023-05-07T15:45:06;20.58;;;18.35;;
53145;SDS011;39042;53.150;5.898;2023-05-07T15:47:33;22.48;;;20.27;;
53145;SDS011;39042;53.150;5.898;2023-05-07T15:50:00;22.58;;;20.27;;
53145;SDS011;39042;53.150;5.898;2023-05-07T15:52:26;22.80;;;20.48;;
53145;SDS011;39042;53.150;5.898;2023-05-07T15:54:53;18.15;;;16.20;;
53145;SDS011;39042;53.150;5.898;2023-05-07T15:57:20;21.92;;;19.63;;
53145;SDS011;39042;53.150;5.898;2023-05-07T15:59:47;19.25;;;17.30;;
53145;SDS011;39042;53.150;5.898;2023-05-07T16:02:12;21.08;;;18.80;;
53145;SDS011;39042;53.150;5.898;2023-05-07T16:04:38;18.98;;;16.92;;
53145;SDS011;39042;53.150;5.898;2023-05-07T16:07:04;23.13;;;20.80;;
53145;SDS011;39042;53.150;5.898;2023-05-07T16:09:30;18.92;;;16.92;;
53145;SDS011;39042;53.150;5.898;2023-05-07T16:11:56;18.55;;;16.65;;
53145;SDS011;39042;53.150;5.898;2023-05-07T16:14:24;20.20;;;18.23;;
53145;SDS011;39042;53.150;5.898;2023-05-07T16:16:50;20.35;;;15.90;;
53145;SDS011;39042;53.150;5.898;2023-05-07T16:19:15;16.95;;;14.57;;
53145;SDS011;39042;53.150;5.898;2023-05-07T16:21:41;17.08;;;15.23;;
53145;SDS011;39042;53.150;5.898;2023-05-07T16:24:07;21.60;;;19.30;;
53145;SDS011;39042;53.150;5.898;2023-05-07T16:26:33;23.98;;;21.77;;
53145;SDS011;39042;53.150;5.898;2023-05-07T16:28:59;18.08;;;15.50;;
53145;SDS011;39042;53.150;5.898;2023-05-07T16:31:25;18.98;;;17.08;;
53145;SDS011;39042;53.150;5.898;2023-05-07T16:33:51;19.90;;;17.58;;
53145;SDS011;39042;53.150;5.898;2023-05-07T16:36:17;19.10;;;17.15;;
53145;SDS011;39042;53.150;5.898;2023-05-07T16:38:43;17.23;;;14.95;;
53145;SDS011;39042;53.150;5.898;2023-05-07T16:41:09;25.80;;;21.35;;
53145;SDS011;39042;53.150;5.898;2023-05-07T16:43:35;21.35;;;17.20;;
53145;SDS011;39042;53.150;5.898;2023-05-07T16:46:01;16.75;;;14.05;;
53145;SDS011;39042;53.150;5.898;2023-05-07T16:48:27;16.13;;;14.43;;
53145;SDS011;39042;53.150;5.898;2023-05-07T16:50:52;16.88;;;13.32;;
53145;SDS011;39042;53.150;5.898;2023-05-07T16:53:18;14.83;;;12.40;;
53145;SDS011;39042;53.150;5.898;2023-05-07T16:55:44;16.70;;;13.02;;
53145;SDS011;39042;53.150;5.898;2023-05-07T16:58:10;15.15;;;13.55;;
53145;SDS011;39042;53.150;5.898;2023-05-07T17:00:37;15.07;;;13.35;;
53145;SDS011;39042;53.150;5.898;2023-05-07T17:03:03;16.13;;;13.98;;
53145;SDS011;39042;53.150;5.898;2023-05-07T17:05:29;14.82;;;13.27;;
53145;SDS011;39042;53.150;5.898;2023-05-07T17:07:55;16.58;;;13.75;;
53145;SDS011;39042;53.150;5.898;2023-05-07T17:10:22;16.02;;;14.32;;
53145;SDS011;39042;53.150;5.898;2023-05-07T17:12:48;15.65;;;13.45;;
53145;SDS011;39042;53.150;5.898;2023-05-07T17:15:14;13.40;;;12.00;;
53145;SDS011;39042;53.150;5.898;2023-05-07T17:17:40;13.65;;;12.27;;
53145;SDS011;39042;53.150;5.898;2023-05-07T17:20:06;15.33;;;13.17;;
53145;SDS011;39042;53.150;5.898;2023-05-07T17:22:32;14.10;;;12.65;;
53145;SDS011;39042;53.150;5.898;2023-05-07T17:24:58;15.05;;;13.48;;
53145;SDS011;39042;53.150;5.898;2023-05-07T17:27:25;14.90;;;13.40;;
53145;SDS011;39042;53.150;5.898;2023-05-07T17:29:51;14.25;;;12.77;;
53145;SDS011;39042;53.150;5.898;2023-05-07T17:32:16;15.82;;;14.18;;
53145;SDS011;39042;53.150;5.898;2023-05-07T17:34:42;15.68;;;14.15;;
53145;SDS011;39042;53.150;5.898;2023-05-07T17:37:08;14.35;;;12.07;;
53145;SDS011;39042;53.150;5.898;2023-05-07T17:39:34;13.40;;;11.57;;
53145;SDS011;39042;53.150;5.898;2023-05-07T17:41:59;13.75;;;10.82;;
53145;SDS011;39042;53.150;5.898;2023-05-07T17:44:25;13.10;;;11.80;;
53145;SDS011;39042;53.150;5.898;2023-05-07T17:46:51;11.82;;;10.00;;
53145;SDS011;39042;53.150;5.898;2023-05-07T17:49:17;11.02;;;9.90;;
53145;SDS011;39042;53.150;5.898;2023-05-07T17:51:43;9.75;;;8.75;;
53145;SDS011;39042;53.150;5.898;2023-05-07T17:54:08;10.73;;;9.63;;
53145;SDS011;39042;53.150;5.898;2023-05-07T17:56:36;10.05;;;9.05;;
53145;SDS011;39042;53.150;5.898;2023-05-07T17:59:02;10.32;;;9.23;;
53145;SDS011;39042;53.150;5.898;2023-05-07T18:01:28;11.55;;;10.35;;
53145;SDS011;39042;53.150;5.898;2023-05-07T18:03:54;10.30;;;9.30;;
53145;SDS011;39042;53.150;5.898;2023-05-07T18:06:20;10.77;;;9.68;;
53145;SDS011;39042;53.150;5.898;2023-05-07T18:08:47;10.85;;;9.73;;
53145;SDS011;39042;53.150;5.898;2023-05-07T18:11:13;11.18;;;10.02;;
53145;SDS011;39042;53.150;5.898;2023-05-07T18:13:39;13.70;;;10.33;;
53145;SDS011;39042;53.150;5.898;2023-05-07T18:16:05;10.95;;;9.85;;
53145;SDS011;39042;53.150;5.898;2023-05-07T18:18:30;12.37;;;10.77;;
53145;SDS011;39042;53.150;5.898;2023-05-07T18:20:59;10.50;;;9.45;;
53145;SDS011;39042;53.150;5.898;2023-05-07T18:23:25;10.80;;;9.57;;
53145;SDS011;39042;53.150;5.898;2023-05-07T18:25:51;19.30;;;15.43;;
53145;SDS011;39042;53.150;5.898;2023-05-07T18:28:17;13.85;;;12.32;;
53145;SDS011;39042;53.150;5.898;2023-05-07T18:30:43;15.07;;;13.18;;
53145;SDS011;39042;53.150;5.898;2023-05-07T18:33:09;13.27;;;11.87;;
53145;SDS011;39042;53.150;5.898;2023-05-07T18:35:37;15.30;;;13.40;;
53145;SDS011;39042;53.150;5.898;2023-05-07T18:38:03;17.93;;;15.23;;
53145;SDS011;39042;53.150;5.898;2023-05-07T18:40:28;16.90;;;15.10;;
53145;SDS011;39042;53.150;5.898;2023-05-07T18:42:54;20.53;;;16.73;;
53145;SDS011;39042;53.150;5.898;2023-05-07T18:45:20;19.15;;;15.98;;
53145;SDS011;39042;53.150;5.898;2023-05-07T22:03:31;16.52;;;13.38;;
53145;SDS011;39042;53.150;5.898;2023-05-07T22:05:57;18.02;;;13.05;;
53145;SDS011;39042;53.150;5.898;2023-05-07T22:08:22;16.93;;;14.43;;
53145;SDS011;39042;53.150;5.898;2023-05-07T22:10:48;15.40;;;12.87;;
53145;SDS011;39042;53.150;5.898;2023-05-07T22:13:15;18.23;;;13.98;;
53145;SDS011;39042;53.150;5.898;2023-05-07T22:15:40;14.67;;;12.33;;
53145;SDS011;39042;53.150;5.898;2023-05-07T22:18:06;17.00;;;13.90;;
53145;SDS011;39042;53.150;5.898;2023-05-07T22:20:32;16.47;;;12.83;;
53145;SDS011;39042;53.150;5.898;2023-05-07T22:22:58;15.63;;;11.53;;
53145;SDS011;39042;53.150;5.898;2023-05-07T22:25:23;15.50;;;13.63;;
53145;SDS011;39042;53.150;5.898;2023-05-07T22:27:50;13.70;;;12.15;;
53145;SDS011;39042;53.150;5.898;2023-05-07T22:30:16;15.45;;;13.10;;
53145;SDS011;39042;53.150;5.898;2023-05-07T22:32:43;13.95;;;12.45;;
53145;SDS011;39042;53.150;5.898;2023-05-07T22:35:09;15.40;;;13.52;;
53145;SDS011;39042;53.150;5.898;2023-05-07T22:37:35;15.95;;;13.45;;
53145;SDS011;39042;53.150;5.898;2023-05-07T22:40:01;14.55;;;12.90;;
53145;SDS011;39042;53.150;5.898;2023-05-07T22:42:27;16.27;;;13.30;;
53145;SDS011;39042;53.150;5.898;2023-05-07T22:44:53;15.53;;;12.93;;
53145;SDS011;39042;53.150;5.898;2023-05-07T22:47:20;15.85;;;12.52;;
53145;SDS011;39042;53.150;5.898;2023-05-07T22:49:49;16.27;;;13.13;;
53145;SDS011;39042;53.150;5.898;2023-05-07T22:52:15;15.67;;;13.80;;
53145;SDS011;39042;53.150;5.898;2023-05-07T22:54:41;15.85;;;13.57;;
53145;SDS011;39042;53.150;5.898;2023-05-07T22:57:07;16.87;;;12.73;;
53145;SDS011;39042;53.150;5.898;2023-05-07T22:59:33;17.30;;;13.63;;
53145;SDS011;39042;53.150;5.898;2023-05-07T23:01:58;15.60;;;13.93;;
53145;SDS011;39042;53.150;5.898;2023-05-07T23:04:25;17.57;;;14.03;;
53145;SDS011;39042;53.150;5.898;2023-05-07T23:06:51;17.90;;;14.13;;
53145;SDS011;39042;53.150;5.898;2023-05-07T23:09:17;17.15;;;14.20;;
53145;SDS011;39042;53.150;5.898;2023-05-07T23:11:43;18.17;;;13.53;;
53145;SDS011;39042;53.150;5.898;2023-05-07T23:14:09;16.60;;;13.33;;
53145;SDS011;39042;53.150;5.898;2023-05-07T23:16:35;14.80;;;13.20;;
53145;SDS011;39042;53.150;5.898;2023-05-07T23:19:00;16.03;;;13.13;;
53145;SDS011;39042;53.150;5.898;2023-05-07T23:21:26;16.30;;;13.70;;
53145;SDS011;39042;53.150;5.898;2023-05-07T23:23:52;15.97;;;14.03;;
53145;SDS011;39042;53.150;5.898;2023-05-07T23:26:17;17.73;;;14.27;;
53145;SDS011;39042;53.150;5.898;2023-05-07T23:28:43;18.03;;;15.27;;
53145;SDS011;39042;53.150;5.898;2023-05-07T23:31:09;18.00;;;14.60;;
53145;SDS011;39042;53.150;5.898;2023-05-07T23:33:37;17.70;;;13.82;;
53145;SDS011;39042;53.150;5.898;2023-05-07T23:36:04;16.00;;;13.98;;
53145;SDS011;39042;53.150;5.898;2023-05-07T23:38:31;14.93;;;13.10;;
53145;SDS011;39042;53.150;5.898;2023-05-07T23:40:57;16.73;;;13.85;;
53145;SDS011;39042;53.150;5.898;2023-05-07T23:43:24;18.65;;;13.32;;
53145;SDS011;39042;53.150;5.898;2023-05-07T23:45:50;15.30;;;13.68;;
53145;SDS011;39042;53.150;5.898;2023-05-07T23:48:16;15.85;;;13.15;;
53145;SDS011;39042;53.150;5.898;2023-05-07T23:50:42;17.20;;;13.27;;
53145;SDS011;39042;53.150;5.898;2023-05-07T23:53:08;16.63;;;13.40;;
53145;SDS011;39042;53.150;5.898;2023-05-07T23:55:34;15.00;;;12.63;;
53145;SDS011;39042;53.150;5.898;2023-05-07T23:58:00;16.35;;;13.27;;
